Time;durP1;ratioP1;P1;durP2;ratioP2;P2;SDS_P1;SDS_P2;PMS_P1;PMS_P2;Temp;Humidity;BMP_temperature;BMP_pressure;BME280_temperature;BME280_humidity;BME280_pressure;Samples;Min_cycle;Max_cycle;Signal;HPM_P1;HPM_P2
2023/01/20 00:00:07;;;;;;;8.60;3.88;;;;;;;-1.58;72.30;100902.34;4936802;28;20593;-74
2023/01/20 00:02:34;;;;;;;7.75;3.05;;;;;;;-1.61;72.59;100908.25;4938376;28;20052;-75
2023/01/20 00:05:02;;;;;;;8.23;3.13;;;;;;;-1.61;71.79;100910.81;4935353;28;20596;-75
2023/01/20 00:07:29;;;;;;;12.25;3.97;;;;;;;-1.63;72.25;100909.88;4935414;28;20097;-78
2023/01/20 00:09:56;;;;;;;8.07;3.08;;;;;;;-1.64;72.37;100913.25;4931499;28;20582;-74
2023/01/20 00:12:23;;;;;;;8.68;3.22;;;;;;;-1.65;71.99;100911.53;4934325;28;21332;-75
2023/01/20 00:14:50;;;;;;;6.22;3.47;;;;;;;-1.67;72.14;100910.59;4935469;28;20050;-76
2023/01/20 00:17:17;;;;;;;7.72;3.00;;;;;;;-1.66;72.35;100916.59;4934311;28;20043;-75
2023/01/20 00:19:43;;;;;;;6.22;2.70;;;;;;;-1.68;72.42;100915.66;4937031;28;20427;-75
2023/01/20 00:22:12;;;;;;;9.80;3.45;;;;;;;-1.69;72.34;100916.50;4935027;28;20416;-75
2023/01/20 00:24:38;;;;;;;9.43;2.90;;;;;;;-1.69;72.26;100930.16;4934061;28;20050;-74
2023/01/20 00:27:06;;;;;;;8.38;3.28;;;;;;;-1.78;72.30;100914.50;4935748;28;20052;-75
2023/01/20 00:29:35;;;;;;;6.95;2.20;;;;;;;-1.72;72.41;100924.94;4932233;28;20166;-75
2023/01/20 00:32:02;;;;;;;11.77;2.78;;;;;;;-1.81;72.15;100915.25;4933316;28;20051;-75
2023/01/20 00:34:29;;;;;;;5.20;2.65;;;;;;;-1.73;72.22;100933.44;4935464;28;20139;-75
2023/01/20 00:36:56;;;;;;;6.50;2.17;;;;;;;-1.73;72.46;100937.72;4935216;28;20424;-75
2023/01/20 00:39:24;;;;;;;3.47;1.20;;;;;;;-1.74;72.07;100934.25;4932231;28;20044;-75
2023/01/20 00:41:51;;;;;;;3.00;1.17;;;;;;;-1.75;72.19;100940.22;4937221;28;20135;-76
2023/01/20 00:44:18;;;;;;;8.65;1.17;;;;;;;-1.76;72.43;100938.47;4937616;28;20057;-77
2023/01/20 00:46:45;;;;;;;4.03;0.98;;;;;;;-1.75;71.97;100940.22;4936582;28;20476;-75
2023/01/20 00:49:12;;;;;;;3.85;1.15;;;;;;;-1.76;72.11;100941.03;4933298;28;20550;-74
2023/01/20 00:51:39;;;;;;;4.97;0.85;;;;;;;-1.76;72.23;100947.84;4936790;28;20047;-76
2023/01/20 00:54:06;;;;;;;5.03;0.90;;;;;;;-1.77;72.22;100951.22;4935579;28;20047;-75
2023/01/20 00:56:34;;;;;;;4.13;1.05;;;;;;;-1.77;71.95;100952.06;4935359;28;20057;-74
2023/01/20 00:59:01;;;;;;;3.08;0.93;;;;;;;-1.78;72.42;100949.47;4938246;28;20044;-75
2023/01/20 01:01:27;;;;;;;5.63;1.83;;;;;;;-1.78;72.36;100952.91;4938218;29;20441;-75
2023/01/20 01:03:54;;;;;;;2.70;0.85;;;;;;;-1.78;71.93;100957.16;4935345;28;20039;-74
2023/01/20 01:06:22;;;;;;;2.13;0.95;;;;;;;-1.84;72.21;100957.81;4937251;29;20055;-75
2023/01/20 01:08:49;;;;;;;1.77;0.73;;;;;;;-1.80;72.29;100969.91;4932101;28;20676;-75
2023/01/20 01:11:16;;;;;;;4.57;0.77;;;;;;;-1.82;71.97;100964.75;4934244;29;20731;-75
2023/01/20 01:13:44;;;;;;;1.98;0.90;;;;;;;-1.81;71.81;100968.16;4936844;28;20083;-75
2023/01/20 01:16:12;;;;;;;4.30;1.25;;;;;;;-1.82;71.73;100976.69;4935256;28;20055;-75
2023/01/20 01:18:39;;;;;;;6.78;1.40;;;;;;;-1.83;71.83;100974.91;4930294;28;20062;-75
2023/01/20 01:21:08;;;;;;;2.22;1.05;;;;;;;-1.84;72.45;100970.63;4938555;28;20067;-74
2023/01/20 01:23:35;;;;;;;4.93;1.38;;;;;;;-1.85;72.16;100980.00;4937407;28;20428;-75
2023/01/20 01:26:02;;;;;;;4.97;1.25;;;;;;;-1.92;72.35;100967.78;4937075;28;20085;-75
2023/01/20 01:28:29;;;;;;;7.07;1.05;;;;;;;-1.87;71.84;100980.75;4935563;28;21026;-74
2023/01/20 01:31:00;;;;;;;3.75;1.38;;;;;;;-1.88;71.83;100985.00;4941589;28;20043;-75
2023/01/20 01:33:27;;;;;;;6.00;1.63;;;;;;;-1.89;72.40;100990.06;4938842;28;20047;-75
2023/01/20 01:35:58;;;;;;;3.05;1.00;;;;;;;-1.91;72.37;100987.44;4935983;29;20055;-75
2023/01/20 01:38:26;;;;;;;2.60;0.77;;;;;;;-1.91;72.30;100991.69;4936007;28;20046;-75
2023/01/20 01:40:54;;;;;;;3.65;1.25;;;;;;;-1.92;72.25;100992.53;4935477;28;20055;-74
2023/01/20 01:43:24;;;;;;;3.45;1.10;;;;;;;-1.93;72.30;100996.78;4932868;28;20050;-74
2023/01/20 01:45:51;;;;;;;3.67;1.20;;;;;;;-1.94;72.21;100995.00;4934786;28;20053;-75
2023/01/20 01:48:22;;;;;;;4.00;0.82;;;;;;;-1.95;71.91;100994.97;4939120;28;20054;-75
2023/01/20 01:50:53;;;;;;;5.30;0.80;;;;;;;-1.96;72.16;100994.13;4938308;28;20099;-75
2023/01/20 01:53:21;;;;;;;3.63;1.00;;;;;;;-1.97;72.33;100996.59;4939754;28;20054;-75
2023/01/20 01:56:00;;;;;;;6.03;0.90;;;;;;;-1.99;72.40;100991.44;4937823;28;20047;-75
2023/01/20 01:58:29;;;;;;;2.25;0.70;;;;;;;-1.99;72.19;101005.91;4937686;28;20048;-75
2023/01/20 02:00:56;;;;;;;1.83;0.80;;;;;;;-2.00;72.03;101005.03;4938729;28;20491;-75
2023/01/20 02:03:28;;;;;;;4.57;0.95;;;;;;;-2.00;72.02;101006.72;4941405;29;20055;-76
2023/01/20 02:05:55;;;;;;;2.22;0.75;;;;;;;-2.13;72.00;100979.84;4935973;28;20063;-75
2023/01/20 02:08:22;;;;;;;2.25;0.73;;;;;;;-2.00;72.33;101005.03;4934627;28;20513;-74
2023/01/20 02:10:49;;;;;;;5.13;1.33;;;;;;;-2.01;72.26;101007.56;4936788;28;20720;-75
2023/01/20 02:13:16;;;;;;;5.35;1.05;;;;;;;-2.22;72.36;100977.81;4939473;28;20131;-76
2023/01/20 02:15:53;;;;;;;5.60;0.85;;;;;;;-2.05;72.20;101011.66;4939544;28;20055;-75
2023/01/20 02:18:42;;;;;;;5.28;0.80;;;;;;;-2.05;71.94;101022.81;4940013;29;20047;-74
2023/01/20 02:21:46;;;;;;;4.65;0.80;;;;;;;-2.07;72.30;101021.88;4943689;28;20051;-75
2023/01/20 02:24:34;;;;;;;0.90;0.80;;;;;;;-2.09;71.93;101020.06;4939330;28;20048;-74
2023/01/20 02:27:18;;;;;;;1.45;0.57;;;;;;;-2.14;72.26;101016.47;4941375;28;20046;-75
2023/01/20 02:30:11;;;;;;;1.17;0.65;;;;;;;-2.16;72.04;101018.97;4943110;28;20055;-75
2023/01/20 02:32:50;;;;;;;6.78;0.60;;;;;;;-2.14;71.91;101025.00;4942972;28;20051;-76
2023/01/20 02:35:24;;;;;;;5.05;2.00;;;;;;;-2.16;71.86;101025.75;4942756;28;20046;-74
2023/01/20 02:38:02;;;;;;;1.25;0.73;;;;;;;-2.18;72.12;101025.72;4941560;28;20051;-75
2023/01/20 02:40:34;;;;;;;3.45;0.90;;;;;;;-2.21;71.80;101024.75;4938262;28;20054;-74
2023/01/20 02:43:10;;;;;;;2.70;0.80;;;;;;;-2.20;72.33;101032.47;4937078;29;20382;-75
2023/01/20 02:45:45;;;;;;;1.50;0.77;;;;;;;-2.20;72.33;101031.59;4937068;28;20113;-75
2023/01/20 02:48:19;;;;;;;4.13;0.60;;;;;;;-2.22;72.10;101035.78;4937602;28;20058;-74
2023/01/20 02:50:55;;;;;;;4.30;1.80;;;;;;;-2.24;71.96;101035.75;4940728;28;20058;-75
2023/01/20 02:53:25;;;;;;;4.30;0.80;;;;;;;-2.24;72.01;101038.28;4942740;28;20051;-75
2023/01/20 02:55:55;;;;;;;2.90;0.60;;;;;;;-2.25;71.96;101039.09;4942655;28;20498;-75
2023/01/20 02:58:27;;;;;;;1.38;0.65;;;;;;;-2.26;71.92;101034.78;4940015;28;20044;-75
2023/01/20 03:00:58;;;;;;;1.25;0.70;;;;;;;-2.27;72.02;101036.50;4941289;28;20043;-75
2023/01/20 03:03:30;;;;;;;2.13;0.70;;;;;;;-2.27;71.82;101041.59;4939459;28;20044;-75
2023/01/20 03:05:59;;;;;;;1.77;0.63;;;;;;;-2.29;71.92;101037.25;4941124;29;20068;-75
2023/01/20 03:08:30;;;;;;;3.88;0.85;;;;;;;-2.29;71.76;101047.47;4939848;29;20051;-75
2023/01/20 03:11:02;;;;;;;5.55;2.50;;;;;;;-2.29;72.02;101050.03;4936749;28;20058;-75
2023/01/20 03:13:35;;;;;;;1.50;0.55;;;;;;;-2.29;71.99;101060.28;4939461;29;20401;-74
2023/01/20 03:16:07;;;;;;;4.05;0.75;;;;;;;-2.29;72.15;101062.81;4937995;28;20047;-75
2023/01/20 03:18:39;;;;;;;2.67;0.77;;;;;;;-2.31;72.19;101067.00;4940000;28;20055;-75
2023/01/20 03:21:09;;;;;;;1.15;0.57;;;;;;;-2.31;72.03;101069.56;4936735;28;20047;-75
2023/01/20 03:23:39;;;;;;;2.40;1.10;;;;;;;-2.32;71.93;101075.50;4938806;28;20673;-75
2023/01/20 03:26:10;;;;;;;2.28;0.75;;;;;;;-2.34;71.93;101080.56;4941260;28;20058;-74
2023/01/20 03:28:37;;;;;;;6.45;0.70;;;;;;;-2.39;72.05;101070.94;4939114;29;20042;-76
2023/01/20 03:31:15;;;;;;;3.35;0.63;;;;;;;-2.36;71.89;101074.53;4938357;28;20052;-74
2023/01/20 03:33:44;;;;;;;1.48;0.60;;;;;;;-2.36;71.77;101079.66;4939550;28;20693;-75
2023/01/20 03:36:13;;;;;;;4.32;1.08;;;;;;;-2.37;72.06;101082.13;4937305;28;20043;-74
2023/01/20 03:38:40;;;;;;;2.53;0.52;;;;;;;-2.40;72.03;101088.00;4937502;28;20073;-75
2023/01/20 03:41:16;;;;;;;1.77;0.50;;;;;;;-2.44;71.99;101087.84;4937522;28;20050;-75
2023/01/20 03:43:51;;;;;;;1.13;0.60;;;;;;;-2.43;72.09;101095.56;4943115;28;20048;-75
2023/01/20 03:46:27;;;;;;;1.33;0.63;;;;;;;-2.44;71.88;101093.81;4942341;28;20048;-74
2023/01/20 03:49:09;;;;;;;2.10;0.80;;;;;;;-2.42;71.86;101096.41;4937919;28;20053;-75
2023/01/20 03:51:46;;;;;;;8.85;0.77;;;;;;;-2.43;71.90;101097.25;4934510;28;20111;-75
2023/01/20 03:54:23;;;;;;;2.38;0.68;;;;;;;-2.43;72.03;101089.56;4941772;28;20043;-75
2023/01/20 03:57:02;;;;;;;5.38;0.60;;;;;;;-2.44;71.81;101104.06;4940477;28;20044;-74
2023/01/20 03:59:32;;;;;;;4.80;0.55;;;;;;;-2.44;71.55;101109.16;4938979;28;20058;-74
2023/01/20 04:02:03;;;;;;;4.60;0.65;;;;;;;-2.53;71.85;101099.44;4937468;28;20423;-74
2023/01/20 04:04:35;;;;;;;3.42;0.55;;;;;;;-2.45;72.05;101109.09;4941266;28;20054;-74
2023/01/20 04:07:04;;;;;;;1.70;0.52;;;;;;;-2.45;72.02;101111.66;4941259;29;20054;-75
2023/01/20 04:09:35;;;;;;;7.03;0.70;;;;;;;-2.46;71.67;101115.91;4941684;28;20061;-74
2023/01/20 04:12:02;;;;;;;1.65;0.60;;;;;;;-2.46;72.05;101117.59;4942143;28;20052;-75
2023/01/20 04:14:29;;;;;;;2.85;0.63;;;;;;;-2.46;72.09;101118.47;4942343;28;20063;-74
2023/01/20 04:17:13;;;;;;;1.25;0.50;;;;;;;-2.47;71.92;101116.72;4922776;29;21016;-74
2023/01/20 04:19:41;;;;;;;1.40;0.80;;;;;;;-2.47;72.00;101120.97;4940131;28;20503;-75
2023/01/20 04:22:12;;;;;;;2.17;0.80;;;;;;;-2.46;71.90;101127.81;4942251;29;20058;-75
2023/01/20 04:24:44;;;;;;;5.25;1.25;;;;;;;-2.50;71.84;101125.16;4938269;28;20412;-75
2023/01/20 04:27:11;;;;;;;5.47;0.80;;;;;;;-2.47;71.95;101129.50;4943441;29;20055;-74
2023/01/20 04:29:40;;;;;;;5.72;0.80;;;;;;;-2.46;72.05;101125.25;4943154;28;20070;-74
2023/01/20 04:32:07;;;;;;;4.15;0.75;;;;;;;-2.50;72.26;101117.47;4938113;28;20051;-74
2023/01/20 04:34:34;;;;;;;4.38;0.70;;;;;;;-2.60;72.10;101100.00;4944669;28;20049;-75
2023/01/20 04:37:02;;;;;;;3.90;1.05;;;;;;;-2.46;72.22;101130.38;4940163;29;20059;-76
2023/01/20 04:39:29;;;;;;;2.83;0.82;;;;;;;-2.47;72.12;101129.50;4941536;29;20047;-75
2023/01/20 04:41:56;;;;;;;6.55;0.90;;;;;;;-2.47;72.34;101129.50;4937154;28;20052;-75
2023/01/20 04:44:23;;;;;;;3.38;1.00;;;;;;;-2.47;72.09;101139.75;4940722;28;20070;-74
2023/01/20 04:46:49;;;;;;;3.90;1.00;;;;;;;-2.46;71.72;101138.06;4938140;28;20424;-75
2023/01/20 04:49:16;;;;;;;4.40;0.80;;;;;;;-2.46;72.14;101140.63;4938799;29;20047;-75
2023/01/20 04:51:43;;;;;;;2.83;0.60;;;;;;;-2.45;72.22;101144.91;4942228;29;20058;-75
2023/01/20 04:54:12;;;;;;;3.28;0.60;;;;;;;-2.46;72.12;101144.03;4941364;28;20530;-74
2023/01/20 04:56:39;;;;;;;4.40;0.85;;;;;;;-2.46;71.85;101141.47;4943370;28;20050;-74
2023/01/20 04:59:06;;;;;;;3.35;1.00;;;;;;;-2.50;72.08;101140.50;4941658;28;20047;-74
2023/01/20 05:01:33;;;;;;;5.18;0.77;;;;;;;-2.45;72.26;101142.34;4941047;28;20040;-75
2023/01/20 05:03:59;;;;;;;7.00;0.98;;;;;;;-2.46;71.86;101144.03;4940030;28;20055;-75
2023/01/20 05:06:26;;;;;;;2.70;1.30;;;;;;;-2.47;72.18;101149.09;4935213;28;20061;-74
2023/01/20 05:08:53;;;;;;;2.03;0.60;;;;;;;-2.47;72.21;101147.41;4938061;29;20047;-74
2023/01/20 05:11:21;;;;;;;5.25;0.60;;;;;;;-2.46;71.92;101153.41;4938663;28;20067;-74
2023/01/20 05:13:48;;;;;;;2.33;0.60;;;;;;;-2.47;71.97;101151.66;4940461;28;20053;-75
2023/01/20 05:16:20;;;;;;;4.55;0.85;;;;;;;-2.47;72.16;101151.66;4936023;28;20600;-74
2023/01/20 05:18:47;;;;;;;6.10;2.78;;;;;;;-2.54;71.96;101150.53;4941406;28;20055;-74
2023/01/20 05:21:14;;;;;;;5.30;0.60;;;;;;;-2.47;71.79;101154.22;4943270;28;20047;-75
2023/01/20 05:23:41;;;;;;;4.55;1.25;;;;;;;-2.49;72.14;101155.00;4945548;28;20043;-74
2023/01/20 05:26:10;;;;;;;1.40;0.60;;;;;;;-2.46;71.95;101161.06;4945582;28;20606;-75
2023/01/20 05:28:38;;;;;;;8.27;0.60;;;;;;;-2.49;71.68;101152.47;4948846;28;20059;-75
2023/01/20 05:31:05;;;;;;;1.88;0.75;;;;;;;-2.51;71.58;101156.63;4945319;29;20093;-74
2023/01/20 05:33:32;;;;;;;6.93;1.33;;;;;;;-2.47;71.92;101160.22;4942579;29;20423;-76
2023/01/20 05:35:59;;;;;;;2.55;0.63;;;;;;;-2.54;72.00;101153.94;4938514;29;20054;-74
2023/01/20 05:38:26;;;;;;;1.73;0.45;;;;;;;-2.49;71.89;101162.69;4938510;28;20040;-75
2023/01/20 05:41:01;;;;;;;3.42;0.70;;;;;;;-2.49;71.91;101169.50;4940870;28;20134;-74
2023/01/20 05:43:28;;;;;;;5.00;0.60;;;;;;;-2.49;72.08;101172.06;4944587;28;20047;-74
2023/01/20 05:45:57;;;;;;;3.35;0.80;;;;;;;-2.51;72.12;101161.75;4940641;28;20059;-74
2023/01/20 05:48:24;;;;;;;3.17;0.77;;;;;;;-2.47;72.26;101174.69;4941858;28;20052;-75
2023/01/20 05:50:51;;;;;;;0.77;0.47;;;;;;;-2.46;72.19;101177.28;4943356;28;20048;-75
2023/01/20 05:53:18;;;;;;;4.93;0.70;;;;;;;-2.46;72.34;101169.63;4941454;28;20047;-74
2023/01/20 05:55:45;;;;;;;1.63;0.50;;;;;;;-2.46;72.25;101176.44;4947120;28;20055;-75
2023/01/20 05:58:12;;;;;;;0.65;0.50;;;;;;;-2.45;72.59;101183.28;4945213;28;20057;-75
2023/01/20 06:00:39;;;;;;;2.35;0.50;;;;;;;-2.44;72.10;101183.34;4943782;28;20039;-74
2023/01/20 06:03:08;;;;;;;2.88;0.65;;;;;;;-2.43;72.54;101184.22;4943517;29;20058;-74
2023/01/20 06:05:35;;;;;;;2.67;0.70;;;;;;;-2.44;72.40;101185.91;4945189;28;20062;-73
2023/01/20 06:08:02;;;;;;;2.17;0.63;;;;;;;-2.43;72.48;101191.91;4945004;28;20055;-73
2023/01/20 06:10:28;;;;;;;1.70;1.15;;;;;;;-2.43;72.60;101191.91;4944317;28;20055;-73
2023/01/20 06:12:56;;;;;;;4.55;0.63;;;;;;;-2.43;72.16;101197.00;4947089;28;20050;-73
2023/01/20 06:15:24;;;;;;;1.38;0.60;;;;;;;-2.43;72.41;101208.13;4948136;28;20043;-75
2023/01/20 06:17:52;;;;;;;3.50;1.05;;;;;;;-2.43;72.42;101204.69;4942769;29;20043;-73
2023/01/20 06:20:20;;;;;;;2.95;1.00;;;;;;;-2.42;72.56;101208.97;4942770;28;20043;-73
2023/01/20 06:22:47;;;;;;;2.78;0.90;;;;;;;-2.52;72.21;101198.38;4945535;28;20051;-72
2023/01/20 06:25:14;;;;;;;1.42;0.50;;;;;;;-2.42;72.29;101219.22;4945602;28;20054;-73
2023/01/20 06:27:41;;;;;;;2.28;0.80;;;;;;;-2.41;72.43;101226.97;4944635;28;20047;-72
2023/01/20 06:30:10;;;;;;;2.28;0.80;;;;;;;-2.42;72.71;101224.31;4946431;29;20514;-73
2023/01/20 06:32:37;;;;;;;1.50;0.60;;;;;;;-2.40;72.48;101238.94;4940572;28;20053;-72
2023/01/20 06:35:04;;;;;;;1.10;0.55;;;;;;;-2.40;72.44;101238.94;4943920;28;20053;-72
2023/01/20 06:37:32;;;;;;;3.08;0.50;;;;;;;-2.38;72.79;101246.69;4942388;29;20047;-73
2023/01/20 06:39:59;;;;;;;3.03;0.55;;;;;;;-2.39;72.47;101244.91;4944795;29;20053;-73
2023/01/20 06:42:26;;;;;;;2.35;0.77;;;;;;;-2.37;72.70;101251.84;4937200;29;20039;-73
2023/01/20 06:44:53;;;;;;;1.90;0.57;;;;;;;-2.37;72.54;101256.97;4938015;29;20055;-73
2023/01/20 06:47:19;;;;;;;3.60;0.77;;;;;;;-2.36;72.77;101261.28;4937636;28;20052;-73
2023/01/20 06:49:46;;;;;;;2.70;1.17;;;;;;;-2.36;72.42;101266.41;4942773;28;20051;-73
2023/01/20 06:52:13;;;;;;;5.65;0.88;;;;;;;-2.46;72.59;101248.06;4943087;29;20070;-75
2023/01/20 06:54:41;;;;;;;3.30;1.08;;;;;;;-2.35;72.83;101278.38;4941862;28;20059;-74
2023/01/20 06:57:08;;;;;;;3.05;1.23;;;;;;;-2.35;72.35;101275.81;4945920;28;20048;-74
2023/01/20 06:59:35;;;;;;;3.13;1.42;;;;;;;-2.35;72.96;101283.50;4940680;28;20058;-74
2023/01/20 07:02:02;;;;;;;3.20;1.73;;;;;;;-2.34;72.81;101279.25;4941889;29;20054;-74
2023/01/20 07:04:29;;;;;;;4.78;1.85;;;;;;;-2.33;72.88;101288.69;4940153;28;20051;-73
2023/01/20 07:06:56;;;;;;;3.78;1.50;;;;;;;-2.32;72.85;101293.00;4941188;28;20532;-75
2023/01/20 07:09:23;;;;;;;2.42;1.08;;;;;;;-2.32;72.62;101298.97;4943727;29;20047;-71
2023/01/20 07:11:51;;;;;;;4.75;1.48;;;;;;;-2.31;72.65;101299.84;4939498;28;20053;-72
2023/01/20 07:14:18;;;;;;;3.88;1.23;;;;;;;-2.31;72.77;101310.94;4941890;28;20052;-72
2023/01/20 07:16:46;;;;;;;2.22;1.02;;;;;;;-2.30;72.87;101317.84;4943591;28;20058;-72
2023/01/20 07:19:13;;;;;;;2.40;0.60;;;;;;;-2.30;72.91;101317.84;4940292;28;20055;-74
2023/01/20 07:21:40;;;;;;;4.25;1.13;;;;;;;-2.29;72.77;101324.69;4941584;28;20052;-73
2023/01/20 07:24:09;;;;;;;2.22;0.60;;;;;;;-2.28;73.14;101331.59;4944617;28;20048;-73
2023/01/20 07:26:36;;;;;;;0.98;0.52;;;;;;;-2.27;72.93;101332.44;4942023;28;20066;-73
2023/01/20 07:29:04;;;;;;;1.67;0.95;;;;;;;-2.26;73.14;101337.63;4945477;28;20514;-73
2023/01/20 07:31:33;;;;;;;6.32;1.20;;;;;;;-2.26;72.68;101342.72;4941785;28;20065;-72
2023/01/20 07:34:00;;;;;;;3.33;0.82;;;;;;;-2.28;72.51;101341.81;4941796;28;20463;-73
2023/01/20 07:36:27;;;;;;;3.83;0.60;;;;;;;-2.23;72.72;101348.81;4935014;28;20047;-73
2023/01/20 07:38:54;;;;;;;3.88;0.85;;;;;;;-2.33;72.81;101335.63;4940764;28;20073;-72
2023/01/20 07:41:22;;;;;;;3.22;0.57;;;;;;;-2.21;73.08;101363.41;4941835;28;20051;-72
2023/01/20 07:43:51;;;;;;;1.50;0.85;;;;;;;-2.19;72.72;101360.91;4941874;28;20051;-73
2023/01/20 07:46:19;;;;;;;2.50;0.63;;;;;;;-2.17;72.73;101375.53;4940784;28;20051;-72
2023/01/20 07:48:46;;;;;;;1.95;0.80;;;;;;;-2.17;72.64;101367.84;4942439;28;20480;-74
2023/01/20 07:51:15;;;;;;;3.60;0.47;;;;;;;-2.16;73.16;101369.63;4940817;28;20062;-72
2023/01/20 07:53:45;;;;;;;2.15;0.90;;;;;;;-2.14;72.96;101365.41;4941128;28;20061;-74
2023/01/20 07:56:14;;;;;;;3.60;0.98;;;;;;;-2.11;73.20;101377.47;4939981;29;20493;-73
2023/01/20 07:58:41;;;;;;;2.38;1.10;;;;;;;-2.09;73.25;101379.28;4942287;28;20054;-76
2023/01/20 08:01:11;;;;;;;9.57;1.30;;;;;;;-2.15;73.01;101371.34;4945444;28;20078;-74
2023/01/20 08:03:40;;;;;;;2.13;1.00;;;;;;;-2.17;73.35;101361.84;4945302;28;20065;-76
2023/01/20 08:06:09;;;;;;;2.00;0.90;;;;;;;-2.01;73.73;101389.00;4939467;28;20048;-75
2023/01/20 08:08:36;;;;;;;2.78;0.90;;;;;;;-2.00;73.62;101389.03;4941974;29;20053;-74
2023/01/20 08:11:05;;;;;;;1.48;1.10;;;;;;;-1.96;73.26;101397.75;4940806;28;20049;-74
2023/01/20 08:13:32;;;;;;;1.60;0.75;;;;;;;-1.94;73.69;101396.97;4941812;28;20070;-74
2023/01/20 08:16:01;;;;;;;8.90;1.25;;;;;;;-1.92;73.69;101397.91;4943591;28;20048;-74
2023/01/20 08:18:28;;;;;;;3.75;0.95;;;;;;;-1.91;73.97;101399.66;4945435;28;20060;-74
2023/01/20 08:20:56;;;;;;;3.53;1.52;;;;;;;-1.87;73.99;101406.69;4939128;28;20047;-74
2023/01/20 08:23:23;;;;;;;5.63;1.48;;;;;;;-1.83;73.34;101421.34;4943684;28;20055;-75
2023/01/20 08:25:57;;;;;;;2.20;0.75;;;;;;;-1.80;73.49;101418.03;4940644;28;20651;-74
2023/01/20 08:28:24;;;;;;;1.13;0.60;;;;;;;-1.78;73.49;101426.66;4941616;29;20063;-75
2023/01/20 08:30:51;;;;;;;7.53;1.00;;;;;;;-1.77;73.54;101423.28;4940192;28;20077;-75
2023/01/20 08:33:18;;;;;;;3.83;1.27;;;;;;;-1.76;73.73;101426.75;4941653;28;20054;-74
2023/01/20 08:35:45;;;;;;;3.03;0.70;;;;;;;-1.73;73.56;101419.19;4944417;29;20138;-74
2023/01/20 08:38:13;;;;;;;3.20;0.90;;;;;;;-1.70;73.80;101432.13;4940178;28;20612;-75
2023/01/20 08:40:41;;;;;;;4.03;1.48;;;;;;;-1.67;74.07;101442.50;4937449;28;20053;-74
2023/01/20 08:43:08;;;;;;;2.83;0.90;;;;;;;-1.66;73.51;101439.09;4942758;28;20757;-75
2023/01/20 08:45:35;;;;;;;3.58;1.10;;;;;;;-1.64;73.59;101445.19;4945921;28;20086;-75
2023/01/20 08:48:02;;;;;;;3.38;0.70;;;;;;;-1.63;73.72;101452.91;4940552;29;20052;-75
2023/01/20 08:50:29;;;;;;;1.05;0.60;;;;;;;-1.61;73.61;101446.19;4942256;28;20043;-75
2023/01/20 08:52:56;;;;;;;1.48;0.63;;;;;;;-1.59;73.28;101459.94;4942830;28;20043;-76
2023/01/20 08:55:24;;;;;;;2.13;0.90;;;;;;;-1.56;73.86;101463.44;4941648;29;20044;-76
2023/01/20 08:57:51;;;;;;;2.65;0.75;;;;;;;-1.55;73.85;101465.19;4943711;28;20051;-76
2023/01/20 09:00:19;;;;;;;2.60;1.05;;;;;;;-1.53;73.81;101464.44;4939970;28;20051;-76
2023/01/20 09:02:46;;;;;;;2.03;0.80;;;;;;;-1.50;73.65;101472.25;4941929;28;20062;-76
2023/01/20 09:05:13;;;;;;;4.22;0.80;;;;;;;-1.48;73.74;101479.97;4945738;29;20515;-76
2023/01/20 09:07:40;;;;;;;4.38;1.05;;;;;;;-1.46;73.99;101476.69;4941763;29;20051;-76
2023/01/20 09:10:08;;;;;;;3.83;1.33;;;;;;;-1.44;74.11;101484.44;4941298;28;20429;-76
2023/01/20 09:12:38;;;;;;;5.13;1.30;;;;;;;-1.40;73.92;101494.00;4941491;28;20126;-76
2023/01/20 09:15:06;;;;;;;6.00;1.10;;;;;;;-1.40;74.05;101501.69;4941002;28;20134;-75
2023/01/20 09:17:34;;;;;;;12.57;3.35;;;;;;;-1.37;74.00;101497.59;4938492;28;20063;-75
2023/01/20 09:20:01;;;;;;;5.88;1.63;;;;;;;-1.35;73.81;101500.19;4940906;28;20054;-76
2023/01/20 09:22:28;;;;;;;4.20;1.20;;;;;;;-1.32;74.02;101505.44;4940835;28;20606;-76
2023/01/20 09:24:55;;;;;;;4.25;1.13;;;;;;;-1.32;73.86;101497.75;4944330;28;20069;-75
2023/01/20 09:27:22;;;;;;;3.22;1.13;;;;;;;-1.28;73.93;101502.22;4940865;28;20047;-80
2023/01/20 09:29:50;;;;;;;2.22;1.00;;;;;;;-1.27;73.78;101505.66;4940235;28;20055;-76
2023/01/20 09:32:17;;;;;;;2.47;1.25;;;;;;;-1.25;74.10;101511.69;4942218;29;20039;-76
2023/01/20 09:34:44;;;;;;;4.40;1.40;;;;;;;-1.22;73.96;101516.97;4940973;28;20054;-75
2023/01/20 09:45:49;;;;;;;6.70;2.00;;;;;;;-1.13;74.82;101531.03;4926165;28;20047;-76
2023/01/20 09:54:10;;;;;;;2.67;1.10;;;;;;;-1.02;74.46;101540.88;4941321;28;20086;-75
2023/01/20 09:56:41;;;;;;;4.03;1.52;;;;;;;-1.00;74.62;101539.22;4945718;28;20091;-76
2023/01/20 09:59:14;;;;;;;4.13;1.42;;;;;;;-0.97;74.46;101537.66;4941615;28;20532;-76
2023/01/20 10:01:45;;;;;;;2.38;1.23;;;;;;;-0.92;74.73;101545.53;4936622;28;20058;-75
2023/01/20 10:04:19;;;;;;;11.10;3.20;;;;;;;-0.89;75.28;101548.22;4937325;29;20054;-75
2023/01/20 10:06:50;;;;;;;3.47;1.40;;;;;;;-0.84;74.79;101556.97;4943700;28;20054;-76
2023/01/20 10:09:27;;;;;;;4.35;1.33;;;;;;;-0.83;75.22;101545.91;4943915;28;20058;-76
2023/01/20 10:12:01;;;;;;;4.55;0.90;;;;;;;-0.77;75.41;101553.88;4944818;29;20055;-76
2023/01/20 10:14:33;;;;;;;4.68;1.23;;;;;;;-0.74;75.16;101556.56;4944294;28;20127;-76
2023/01/20 10:17:07;;;;;;;2.58;1.08;;;;;;;-0.69;74.47;101559.28;4944201;28;20043;-75
2023/01/20 10:19:41;;;;;;;4.50;1.38;;;;;;;-0.65;74.88;101565.44;4948787;28;20044;-75
2023/01/20 10:22:11;;;;;;;4.78;1.10;;;;;;;-0.61;75.68;101564.72;4947420;28;20090;-74
2023/01/20 10:24:43;;;;;;;3.42;1.40;;;;;;;-0.58;75.28;101575.09;4940839;29;20055;-75
2023/01/20 10:27:10;;;;;;;3.15;1.50;;;;;;;-0.54;75.06;101566.69;4944084;29;20048;-75
2023/01/20 10:29:38;;;;;;;2.50;1.52;;;;;;;-0.50;75.47;101573.72;4943334;28;20131;-75
2023/01/20 10:32:14;;;;;;;5.05;1.58;;;;;;;-0.47;74.90;101574.72;4943882;28;20051;-74
2023/01/20 10:34:44;;;;;;;;;;;;;;;-0.43;75.39;101570.56;4945702;28;20047;-75
2023/01/20 10:37:11;;;;;;;4.25;1.30;;;;;;;-0.39;75.09;101572.44;4942396;29;19926;-75
2023/01/20 10:39:44;;;;;;;4.45;1.58;;;;;;;-0.37;75.34;101564.78;4945426;29;20047;-74
2023/01/20 10:42:13;;;;;;;5.95;1.70;;;;;;;-0.33;75.38;101571.81;4942531;29;20048;-75
2023/01/20 10:44:40;;;;;;;6.78;1.83;;;;;;;-0.31;75.62;101565.94;4943177;29;20055;-75
2023/01/20 10:47:24;;;;;;;6.43;1.83;;;;;;;-0.24;75.43;101578.16;4946181;28;20053;-75
2023/01/20 10:50:35;;;;;;;5.95;1.55;;;;;;;-0.20;75.57;101583.41;4944201;28;20044;-75
2023/01/20 10:53:14;;;;;;;6.82;1.63;;;;;;;-0.15;75.75;101579.34;4923876;28;20050;-75
2023/01/20 10:55:52;;;;;;;12.00;1.88;;;;;;;-0.10;75.84;101588.97;4945920;28;20058;-75
2023/01/20 10:58:24;;;;;;;4.35;1.75;;;;;;;-0.06;76.06;101587.38;4943868;28;20058;-74
2023/01/20 11:00:51;;;;;;;3.15;1.50;;;;;;;-0.04;76.11;101585.75;4935868;28;20492;-74
2023/01/20 11:03:22;;;;;;;4.22;1.92;;;;;;;0.01;75.57;101583.38;4935605;28;20409;-74
2023/01/20 11:05:51;;;;;;;4.68;1.40;;;;;;;0.04;75.52;101594.63;4947997;28;20054;-75
2023/01/20 11:08:20;;;;;;;3.25;1.38;;;;;;;0.08;75.66;101595.59;4942690;28;20055;-75
2023/01/20 11:10:49;;;;;;;4.35;1.85;;;;;;;0.12;75.86;101602.63;4944947;28;20054;-74
2023/01/20 11:13:17;;;;;;;5.35;2.13;;;;;;;0.16;75.71;101601.91;4942771;28;20040;-75
2023/01/20 11:15:46;;;;;;;5.63;1.67;;;;;;;0.19;76.28;101602.91;4940183;28;20058;-74
2023/01/20 11:18:25;;;;;;;4.43;1.55;;;;;;;0.16;76.09;101602.78;4943367;28;20047;-75
2023/01/20 11:20:54;;;;;;;8.98;1.90;;;;;;;0.22;75.67;101610.72;4943426;28;20484;-75
2023/01/20 11:23:25;;;;;;;5.13;1.48;;;;;;;0.31;76.34;101614.44;4942962;28;20083;-75
2023/01/20 11:25:56;;;;;;;2.70;1.23;;;;;;;0.33;75.91;101620.53;4942811;28;20054;-74
2023/01/20 11:28:24;;;;;;;3.83;1.25;;;;;;;0.35;75.95;101617.19;4941821;28;20043;-74
2023/01/20 11:30:53;;;;;;;3.33;1.42;;;;;;;0.39;75.66;101624.19;4946035;28;20059;-74
2023/01/20 11:33:24;;;;;;;4.28;1.38;;;;;;;0.43;75.88;101622.63;4944221;28;20516;-75
2023/01/20 11:36:02;;;;;;;6.15;1.77;;;;;;;0.46;75.72;101622.72;4941268;28;20054;-73
2023/01/20 11:38:30;;;;;;;2.75;1.30;;;;;;;0.50;75.75;101637.44;4939966;28;20089;-74
2023/01/20 11:40:58;;;;;;;2.60;1.40;;;;;;;0.53;76.15;101631.53;4939384;28;20808;-74
2023/01/20 11:43:30;;;;;;;6.88;1.38;;;;;;;0.57;76.30;101638.53;4943209;28;20044;-74
2023/01/20 11:46:21;;;;;;;4.65;1.65;;;;;;;0.60;75.36;101639.53;4939846;28;20069;-74
2023/01/20 11:48:50;;;;;;;5.35;1.88;;;;;;;0.62;76.29;101643.00;4944098;28;20062;-75
2023/01/20 11:51:20;;;;;;;3.72;1.58;;;;;;;0.66;75.86;101652.59;4935744;28;20412;-74